Terminal Aerodrome Forecast
Issued by NWS

Home | Current Version | Previous Version | Text Only | Print | Product List | Glossary On
Versions: 1 2 3 4 5 6 7 8 9 10 11 12 13 14 15 16 17 18 19 20 21 22 23 24 25 26 27 28 29 30 31 32 33 34 35 36 37
000
FTUS41 KBUF 032104 AAB
TAFIAG
TAF AMD
KIAG 032104Z 0321/0418 02005KT P6SM SCT040
     FM032300 04005KT P6SM SCT250
     FM040400 11004KT 4SM BR SCT060
     FM041200 07010KT P6SM SCT140=

USA.gov is the U.S. government's official web portal to all federal, state and local government web resources and services.